sensor_id;sensor_type;location;lat;lon;timestamp;temperature;humidity
76104;HTU21D;64831;44.870;37.336;2023-04-01T00:00:16;7.04;64.76
76104;HTU21D;64831;44.870;37.336;2023-04-01T00:02:42;7.02;64.66
76104;HTU21D;64831;44.870;37.336;2023-04-01T00:05:08;7.00;64.86
76104;HTU21D;64831;44.870;37.336;2023-04-01T00:07:35;6.98;65.22
76104;HTU21D;64831;44.870;37.336;2023-04-01T00:10:02;6.98;64.96
76104;HTU21D;64831;44.870;37.336;2023-04-01T00:12:28;6.94;65.02
76104;HTU21D;64831;44.870;37.336;2023-04-01T00:14:53;6.95;65.36
76104;HTU21D;64831;44.870;37.336;2023-04-01T00:17:19;6.95;65.23
76104;HTU21D;64831;44.870;37.336;2023-04-01T00:19:45;6.91;65.37
76104;HTU21D;64831;44.870;37.336;2023-04-01T00:22:11;6.90;65.11
76104;HTU21D;64831;44.870;37.336;2023-04-01T00:24:37;6.89;65.00
76104;HTU21D;64831;44.870;37.336;2023-04-01T00:27:03;6.85;65.01
76104;HTU21D;64831;44.870;37.336;2023-04-01T00:29:28;6.84;65.13
76104;HTU21D;64831;44.870;37.336;2023-04-01T00:31:56;6.83;65.26
76104;HTU21D;64831;44.870;37.336;2023-04-01T00:34:22;6.81;65.08
76104;HTU21D;64831;44.870;37.336;2023-04-01T00:36:49;6.82;65.52
76104;HTU21D;64831;44.870;37.336;2023-04-01T00:39:15;6.85;65.62
76104;HTU21D;64831;44.870;37.336;2023-04-01T00:41:41;6.86;65.43
76104;HTU21D;64831;44.870;37.336;2023-04-01T00:44:23;6.87;65.71
76104;HTU21D;64831;44.870;37.336;2023-04-01T00:46:50;6.87;65.60
76104;HTU21D;64831;44.870;37.336;2023-04-01T00:49:18;6.86;65.44
76104;HTU21D;64831;44.870;37.336;2023-04-01T00:51:45;6.87;65.36
76104;HTU21D;64831;44.870;37.336;2023-04-01T00:54:13;6.85;65.38
76104;HTU21D;64831;44.870;37.336;2023-04-01T00:56:41;6.84;65.21
76104;HTU21D;64831;44.870;37.336;2023-04-01T00:59:13;6.84;65.04
76104;HTU21D;64831;44.870;37.336;2023-04-01T01:01:40;6.84;65.02
76104;HTU21D;64831;44.870;37.336;2023-04-01T01:04:06;6.83;65.97
76104;HTU21D;64831;44.870;37.336;2023-04-01T01:11:43;6.80;65.88
76104;HTU21D;64831;44.870;37.336;2023-04-01T01:17:06;6.83;66.12
76104;HTU21D;64831;44.870;37.336;2023-04-01T01:22:27;6.81;65.62
76104;HTU21D;64831;44.870;37.336;2023-04-01T01:27:41;6.75;65.77
76104;HTU21D;64831;44.870;37.336;2023-04-01T01:37:58;6.76;65.57
76104;HTU21D;64831;44.870;37.336;2023-04-01T01:40:26;6.75;65.59
76104;HTU21D;64831;44.870;37.336;2023-04-01T01:42:54;6.75;65.81
76104;HTU21D;64831;44.870;37.336;2023-04-01T01:45:21;6.74;65.74
76104;HTU21D;64831;44.870;37.336;2023-04-01T01:47:49;6.74;65.92
76104;HTU21D;64831;44.870;37.336;2023-04-01T01:50:16;6.75;66.01
76104;HTU21D;64831;44.870;37.336;2023-04-01T01:52:43;6.75;66.05
76104;HTU21D;64831;44.870;37.336;2023-04-01T01:57:56;6.76;65.85
76104;HTU21D;64831;44.870;37.336;2023-04-01T02:00:22;6.75;65.88
76104;HTU21D;64831;44.870;37.336;2023-04-01T02:02:48;6.73;65.91
76104;HTU21D;64831;44.870;37.336;2023-04-01T02:05:16;6.72;66.15
76104;HTU21D;64831;44.870;37.336;2023-04-01T02:07:43;6.72;66.21
76104;HTU21D;64831;44.870;37.336;2023-04-01T02:10:10;6.72;66.41
76104;HTU21D;64831;44.870;37.336;2023-04-01T02:12:36;6.73;66.57
76104;HTU21D;64831;44.870;37.336;2023-04-01T02:15:08;6.73;66.52
76104;HTU21D;64831;44.870;37.336;2023-04-01T02:17:38;6.73;66.51
76104;HTU21D;64831;44.870;37.336;2023-04-01T02:22:35;6.75;66.19
76104;HTU21D;64831;44.870;37.336;2023-04-01T02:25:04;6.76;66.34
76104;HTU21D;64831;44.870;37.336;2023-04-01T02:27:31;6.76;66.47
76104;HTU21D;64831;44.870;37.336;2023-04-01T02:29:57;6.78;66.42
76104;HTU21D;64831;44.870;37.336;2023-04-01T02:32:23;6.81;66.22
76104;HTU21D;64831;44.870;37.336;2023-04-01T02:34:50;6.81;65.93
76104;HTU21D;64831;44.870;37.336;2023-04-01T02:37:16;6.82;66.13
76104;HTU21D;64831;44.870;37.336;2023-04-01T02:39:42;6.84;66.51
76104;HTU21D;64831;44.870;37.336;2023-04-01T02:42:08;6.85;66.29
76104;HTU21D;64831;44.870;37.336;2023-04-01T02:44:34;6.86;66.59
76104;HTU21D;64831;44.870;37.336;2023-04-01T02:46:59;6.87;66.43
76104;HTU21D;64831;44.870;37.336;2023-04-01T02:49:25;6.87;66.83
76104;HTU21D;64831;44.870;37.336;2023-04-01T02:51:51;6.87;66.75
76104;HTU21D;64831;44.870;37.336;2023-04-01T02:54:17;6.87;66.70
76104;HTU21D;64831;44.870;37.336;2023-04-01T02:56:43;6.86;66.87
76104;HTU21D;64831;44.870;37.336;2023-04-01T02:59:09;6.86;66.68
76104;HTU21D;64831;44.870;37.336;2023-04-01T03:01:35;6.87;67.26
76104;HTU21D;64831;44.870;37.336;2023-04-01T03:04:00;6.87;67.18
76104;HTU21D;64831;44.870;37.336;2023-04-01T03:06:26;6.90;67.02
76104;HTU21D;64831;44.870;37.336;2023-04-01T03:08:52;6.91;66.65
76104;HTU21D;64831;44.870;37.336;2023-04-01T03:11:17;6.93;66.57
76104;HTU21D;64831;44.870;37.336;2023-04-01T03:13:43;6.93;66.57
76104;HTU21D;64831;44.870;37.336;2023-04-01T03:16:10;6.93;66.65
76104;HTU21D;64831;44.870;37.336;2023-04-01T03:18:35;6.95;66.69
76104;HTU21D;64831;44.870;37.336;2023-04-01T03:21:14;6.97;66.51
76104;HTU21D;64831;44.870;37.336;2023-04-01T03:23:40;6.99;66.25
76104;HTU21D;64831;44.870;37.336;2023-04-01T03:26:06;7.03;66.20
76104;HTU21D;64831;44.870;37.336;2023-04-01T03:28:32;7.05;66.40
76104;HTU21D;64831;44.870;37.336;2023-04-01T03:30:57;7.11;66.33
76104;HTU21D;64831;44.870;37.336;2023-04-01T03:33:23;7.13;66.01
76104;HTU21D;64831;44.870;37.336;2023-04-01T03:35:49;7.16;65.81
76104;HTU21D;64831;44.870;37.336;2023-04-01T03:38:18;7.22;65.62
76104;HTU21D;64831;44.870;37.336;2023-04-01T03:40:44;7.26;65.49
76104;HTU21D;64831;44.870;37.336;2023-04-01T03:43:10;7.30;65.16
76104;HTU21D;64831;44.870;37.336;2023-04-01T03:45:47;7.32;65.09
76104;HTU21D;64831;44.870;37.336;2023-04-01T03:48:13;7.37;65.16
76104;HTU21D;64831;44.870;37.336;2023-04-01T03:50:39;7.41;65.20
76104;HTU21D;64831;44.870;37.336;2023-04-01T03:53:06;7.44;65.33
76104;HTU21D;64831;44.870;37.336;2023-04-01T03:55:32;7.48;65.29
76104;HTU21D;64831;44.870;37.336;2023-04-01T03:57:58;7.53;65.37
76104;HTU21D;64831;44.870;37.336;2023-04-01T04:00:23;7.57;65.59
76104;HTU21D;64831;44.870;37.336;2023-04-01T04:02:54;7.59;65.43
76104;HTU21D;64831;44.870;37.336;2023-04-01T04:05:27;7.62;65.70
76104;HTU21D;64831;44.870;37.336;2023-04-01T04:07:53;7.64;65.44
76104;HTU21D;64831;44.870;37.336;2023-04-01T04:10:19;7.67;65.49
76104;HTU21D;64831;44.870;37.336;2023-04-01T04:12:45;7.73;65.52
76104;HTU21D;64831;44.870;37.336;2023-04-01T04:15:11;7.77;65.46
76104;HTU21D;64831;44.870;37.336;2023-04-01T04:17:37;7.79;65.65
76104;HTU21D;64831;44.870;37.336;2023-04-01T04:20:03;7.85;65.31
76104;HTU21D;64831;44.870;37.336;2023-04-01T04:22:29;7.89;65.29
76104;HTU21D;64831;44.870;37.336;2023-04-01T04:24:55;7.92;65.20
76104;HTU21D;64831;44.870;37.336;2023-04-01T04:27:21;7.97;65.08
76104;HTU21D;64831;44.870;37.336;2023-04-01T04:29:55;7.99;65.00
76104;HTU21D;64831;44.870;37.336;2023-04-01T04:32:21;8.02;64.88
76104;HTU21D;64831;44.870;37.336;2023-04-01T04:34:47;8.06;64.88
76104;HTU21D;64831;44.870;37.336;2023-04-01T04:37:13;8.09;64.97
76104;HTU21D;64831;44.870;37.336;2023-04-01T04:39:38;8.15;64.98
76104;HTU21D;64831;44.870;37.336;2023-04-01T04:42:05;8.18;64.89
76104;HTU21D;64831;44.870;37.336;2023-04-01T04:44:31;8.21;64.76
76104;HTU21D;64831;44.870;37.336;2023-04-01T04:46:59;8.24;64.95
76104;HTU21D;64831;44.870;37.336;2023-04-01T04:49:25;8.27;64.97
76104;HTU21D;64831;44.870;37.336;2023-04-01T04:51:51;8.30;64.84
76104;HTU21D;64831;44.870;37.336;2023-04-01T04:54:21;8.33;64.77
76104;HTU21D;64831;44.870;37.336;2023-04-01T04:56:52;8.35;64.76
76104;HTU21D;64831;44.870;37.336;2023-04-01T04:59:18;8.39;64.64
76104;HTU21D;64831;44.870;37.336;2023-04-01T05:01:55;8.43;64.76
76104;HTU21D;64831;44.870;37.336;2023-04-01T05:04:20;8.46;64.92
76104;HTU21D;64831;44.870;37.336;2023-04-01T05:06:47;8.50;64.61
76104;HTU21D;64831;44.870;37.336;2023-04-01T05:09:13;8.56;64.57
76104;HTU21D;64831;44.870;37.336;2023-04-01T05:11:41;8.63;64.43
76104;HTU21D;64831;44.870;37.336;2023-04-01T05:14:11;8.71;64.24
76104;HTU21D;64831;44.870;37.336;2023-04-01T05:16:37;8.77;64.01
76104;HTU21D;64831;44.870;37.336;2023-04-01T05:19:02;8.86;63.31
76104;HTU21D;64831;44.870;37.336;2023-04-01T05:21:28;8.93;62.89
76104;HTU21D;64831;44.870;37.336;2023-04-01T05:23:55;9.14;63.29
76104;HTU21D;64831;44.870;37.336;2023-04-01T05:26:23;9.53;63.71
76104;HTU21D;64831;44.870;37.336;2023-04-01T05:28:49;10.21;64.63
76104;HTU21D;64831;44.870;37.336;2023-04-01T05:31:14;11.09;64.56
76104;HTU21D;64831;44.870;37.336;2023-04-01T05:33:43;11.99;62.92
76104;HTU21D;64831;44.870;37.336;2023-04-01T05:36:13;12.84;61.16
76104;HTU21D;64831;44.870;37.336;2023-04-01T05:38:40;13.58;57.25
76104;HTU21D;64831;44.870;37.336;2023-04-01T05:41:09;14.15;56.82
76104;HTU21D;64831;44.870;37.336;2023-04-01T05:43:39;14.66;56.10
76104;HTU21D;64831;44.870;37.336;2023-04-01T05:46:25;15.15;53.58
76104;HTU21D;64831;44.870;37.336;2023-04-01T05:48:57;15.58;53.18
76104;HTU21D;64831;44.870;37.336;2023-04-01T05:51:24;15.85;50.40
76104;HTU21D;64831;44.870;37.336;2023-04-01T05:53:50;16.02;50.43
76104;HTU21D;64831;44.870;37.336;2023-04-01T05:56:16;16.26;48.86
76104;HTU21D;64831;44.870;37.336;2023-04-01T05:58:49;16.51;48.92
76104;HTU21D;64831;44.870;37.336;2023-04-01T06:01:16;16.62;47.70
76104;HTU21D;64831;44.870;37.336;2023-04-01T06:03:43;16.87;48.22
76104;HTU21D;64831;44.870;37.336;2023-04-01T06:06:13;17.08;46.89
76104;HTU21D;64831;44.870;37.336;2023-04-01T06:08:41;17.15;44.34
76104;HTU21D;64831;44.870;37.336;2023-04-01T06:13:42;16.84;44.50
76104;HTU21D;64831;44.870;37.336;2023-04-01T06:22:24;17.22;44.00
76104;HTU21D;64831;44.870;37.336;2023-04-01T06:29:46;17.34;42.29
76104;HTU21D;64831;44.870;37.336;2023-04-01T06:45:00;17.61;41.89
76104;HTU21D;64831;44.870;37.336;2023-04-01T06:50:36;17.55;41.68
76104;HTU21D;64831;44.870;37.336;2023-04-01T06:53:33;17.69;42.15
76104;HTU21D;64831;44.870;37.336;2023-04-01T06:56:24;17.68;42.01
76104;HTU21D;64831;44.870;37.336;2023-04-01T06:59:13;17.69;41.49
76104;HTU21D;64831;44.870;37.336;2023-04-01T07:01:49;17.76;42.19
76104;HTU21D;64831;44.870;37.336;2023-04-01T07:07:25;17.93;41.64
76104;HTU21D;64831;44.870;37.336;2023-04-01T07:09:59;17.96;41.48
76104;HTU21D;64831;44.870;37.336;2023-04-01T07:15:20;17.74;41.04
76104;HTU21D;64831;44.870;37.336;2023-04-01T07:17:50;17.55;40.27
76104;HTU21D;64831;44.870;37.336;2023-04-01T07:20:29;17.62;40.91
76104;HTU21D;64831;44.870;37.336;2023-04-01T07:23:00;17.70;41.22
76104;HTU21D;64831;44.870;37.336;2023-04-01T07:25:52;17.66;40.67
76104;HTU21D;64831;44.870;37.336;2023-04-01T07:28:30;17.82;41.22
76104;HTU21D;64831;44.870;37.336;2023-04-01T07:33:37;18.12;41.05
76104;HTU21D;64831;44.870;37.336;2023-04-01T07:38:50;18.20;39.10
76104;HTU21D;64831;44.870;37.336;2023-04-01T07:44:40;18.30;40.25
76104;HTU21D;64831;44.870;37.336;2023-04-01T07:50:01;18.32;39.57
76104;HTU21D;64831;44.870;37.336;2023-04-01T07:52:33;18.49;40.07
76104;HTU21D;64831;44.870;37.336;2023-04-01T07:55:19;18.43;39.54
76104;HTU21D;64831;44.870;37.336;2023-04-01T08:14:05;18.37;40.81
76104;HTU21D;64831;44.870;37.336;2023-04-01T08:21:56;18.86;39.07
76104;HTU21D;64831;44.870;37.336;2023-04-01T08:24:33;18.69;39.14
76104;HTU21D;64831;44.870;37.336;2023-04-01T08:27:00;18.37;38.72
76104;HTU21D;64831;44.870;37.336;2023-04-01T08:29:34;18.09;39.17
76104;HTU21D;64831;44.870;37.336;2023-04-01T08:32:08;18.12;39.82
76104;HTU21D;64831;44.870;37.336;2023-04-01T08:34:38;18.20;39.47
76104;HTU21D;64831;44.870;37.336;2023-04-01T08:37:14;18.28;39.23
76104;HTU21D;64831;44.870;37.336;2023-04-01T08:39:45;18.43;40.01
76104;HTU21D;64831;44.870;37.336;2023-04-01T08:42:54;18.23;39.07
76104;HTU21D;64831;44.870;37.336;2023-04-01T08:50:09;18.43;39.20
76104;HTU21D;64831;44.870;37.336;2023-04-01T08:58:27;17.90;37.43
76104;HTU21D;64831;44.870;37.336;2023-04-01T09:02:04;17.19;38.35
76104;HTU21D;64831;44.870;37.336;2023-04-01T09:14:45;16.39;39.93
76104;HTU21D;64831;44.870;37.336;2023-04-01T09:22:33;15.37;41.79
76104;HTU21D;64831;44.870;37.336;2023-04-01T09:27:37;15.41;42.73
76104;HTU21D;64831;44.870;37.336;2023-04-01T09:51:37;15.96;41.04
76104;HTU21D;64831;44.870;37.336;2023-04-01T10:08:41;14.80;43.51
76104;HTU21D;64831;44.870;37.336;2023-04-01T10:16:40;15.59;42.23
76104;HTU21D;64831;44.870;37.336;2023-04-01T10:19:12;15.78;41.55
76104;HTU21D;64831;44.870;37.336;2023-04-01T10:21:52;15.96;41.58
76104;HTU21D;64831;44.870;37.336;2023-04-01T10:27:10;15.96;40.98
76104;HTU21D;64831;44.870;37.336;2023-04-01T10:48:45;14.99;42.09
76104;HTU21D;64831;44.870;37.336;2023-04-01T10:53:46;14.82;41.36
76104;HTU21D;64831;44.870;37.336;2023-04-01T11:05:33;13.75;43.67
76104;HTU21D;64831;44.870;37.336;2023-04-01T11:18:17;13.39;42.63
76104;HTU21D;64831;44.870;37.336;2023-04-01T11:23:29;13.63;43.03
76104;HTU21D;64831;44.870;37.336;2023-04-01T11:26:04;14.03;43.11
76104;HTU21D;64831;44.870;37.336;2023-04-01T11:28:59;14.36;42.68
76104;HTU21D;64831;44.870;37.336;2023-04-01T11:34:53;14.67;41.04
76104;HTU21D;64831;44.870;37.336;2023-04-01T11:36:56;14.75;40.58
76104;HTU21D;64831;44.870;37.336;2023-04-01T11:42:08;14.59;41.63
76104;HTU21D;64831;44.870;37.336;2023-04-01T11:50:18;14.40;40.67
76104;HTU21D;64831;44.870;37.336;2023-04-01T12:00:28;14.23;38.71
76104;HTU21D;64831;44.870;37.336;2023-04-01T12:03:15;14.27;38.82
76104;HTU21D;64831;44.870;37.336;2023-04-01T12:11:21;14.59;36.69
76104;HTU21D;64831;44.870;37.336;2023-04-01T12:13:52;14.60;36.47
76104;HTU21D;64831;44.870;37.336;2023-04-01T12:36:40;12.88;38.28
76104;HTU21D;64831;44.870;37.336;2023-04-01T12:49:27;12.82;40.59
76104;HTU21D;64831;44.870;37.336;2023-04-01T12:52:02;12.85;40.05
76104;HTU21D;64831;44.870;37.336;2023-04-01T12:54:38;12.84;40.36
76104;HTU21D;64831;44.870;37.336;2023-04-01T13:02:11;12.79;40.84
76104;HTU21D;64831;44.870;37.336;2023-04-01T13:07:36;12.60;41.00
76104;HTU21D;64831;44.870;37.336;2023-04-01T13:18:11;12.12;42.03
76104;HTU21D;64831;44.870;37.336;2023-04-01T13:30:39;11.82;41.89
76104;HTU21D;64831;44.870;37.336;2023-04-01T13:35:43;11.77;41.77
76104;HTU21D;64831;44.870;37.336;2023-04-01T13:41:05;11.85;41.35
76104;HTU21D;64831;44.870;37.336;2023-04-01T13:43:42;11.84;41.32
76104;HTU21D;64831;44.870;37.336;2023-04-01T13:46:17;11.78;40.09
76104;HTU21D;64831;44.870;37.336;2023-04-01T13:51:23;11.67;40.28
76104;HTU21D;64831;44.870;37.336;2023-04-01T14:01:50;11.37;41.44
76104;HTU21D;64831;44.870;37.336;2023-04-01T14:07:08;11.31;41.23
76104;HTU21D;64831;44.870;37.336;2023-04-01T14:09:48;11.33;41.45
76104;HTU21D;64831;44.870;37.336;2023-04-01T14:12:39;11.33;41.74
76104;HTU21D;64831;44.870;37.336;2023-04-01T14:15:25;11.32;41.97
76104;HTU21D;64831;44.870;37.336;2023-04-01T14:18:05;11.31;42.03
76104;HTU21D;64831;44.870;37.336;2023-04-01T14:23:11;11.26;42.20
76104;HTU21D;64831;44.870;37.336;2023-04-01T14:25:48;11.24;42.48
76104;HTU21D;64831;44.870;37.336;2023-04-01T14:49:54;11.09;42.36
76104;HTU21D;64831;44.870;37.336;2023-04-01T14:52:28;11.07;42.43
76104;HTU21D;64831;44.870;37.336;2023-04-01T14:54:56;11.05;42.31
76104;HTU21D;64831;44.870;37.336;2023-04-01T14:57:28;11.04;42.00
76104;HTU21D;64831;44.870;37.336;2023-04-01T14:59:59;11.01;41.71
76104;HTU21D;64831;44.870;37.336;2023-04-01T15:02:38;10.99;41.55
76104;HTU21D;64831;44.870;37.336;2023-04-01T15:05:31;10.99;42.13
76104;HTU21D;64831;44.870;37.336;2023-04-01T15:26:22;11.04;42.57
76104;HTU21D;64831;44.870;37.336;2023-04-01T15:31:29;11.05;42.43
76104;HTU21D;64831;44.870;37.336;2023-04-01T15:38:53;11.08;41.98
76104;HTU21D;64831;44.870;37.336;2023-04-01T15:41:24;11.10;42.36
76104;HTU21D;64831;44.870;37.336;2023-04-01T15:43:54;11.11;41.93
76104;HTU21D;64831;44.870;37.336;2023-04-01T15:56:53;11.12;41.83
76104;HTU21D;64831;44.870;37.336;2023-04-01T16:04:46;11.11;42.07
76104;HTU21D;64831;44.870;37.336;2023-04-01T16:07:23;11.09;41.42
76104;HTU21D;64831;44.870;37.336;2023-04-01T16:15:21;11.02;41.79
76104;HTU21D;64831;44.870;37.336;2023-04-01T16:20:24;10.98;41.98
76104;HTU21D;64831;44.870;37.336;2023-04-01T16:25:37;10.93;41.56
76104;HTU21D;64831;44.870;37.336;2023-04-01T16:30:47;10.87;40.98
76104;HTU21D;64831;44.870;37.336;2023-04-01T16:38:09;10.84;41.24
76104;HTU21D;64831;44.870;37.336;2023-04-01T16:43:10;10.83;41.93
76104;HTU21D;64831;44.870;37.336;2023-04-01T16:46:12;10.82;41.73
76104;HTU21D;64831;44.870;37.336;2023-04-01T16:48:35;10.80;41.75
76104;HTU21D;64831;44.870;37.336;2023-04-01T16:51:16;10.80;42.00
76104;HTU21D;64831;44.870;37.336;2023-04-01T16:54:04;10.78;41.71
76104;HTU21D;64831;44.870;37.336;2023-04-01T16:56:49;10.79;41.56
76104;HTU21D;64831;44.870;37.336;2023-04-01T16:59:24;10.79;41.00
76104;HTU21D;64831;44.870;37.336;2023-04-01T17:02:23;10.80;41.06
76104;HTU21D;64831;44.870;37.336;2023-04-01T17:04:49;10.80;41.33
76104;HTU21D;64831;44.870;37.336;2023-04-01T17:12:44;10.82;41.10
76104;HTU21D;64831;44.870;37.336;2023-04-01T17:15:27;10.81;41.36
76104;HTU21D;64831;44.870;37.336;2023-04-01T17:20:43;10.74;41.88
76104;HTU21D;64831;44.870;37.336;2023-04-01T17:30:47;10.69;42.29
76104;HTU21D;64831;44.870;37.336;2023-04-01T17:35:58;10.67;42.68
76104;HTU21D;64831;44.870;37.336;2023-04-01T17:51:31;10.69;42.81
76104;HTU21D;64831;44.870;37.336;2023-04-01T17:56:45;10.72;42.48
76104;HTU21D;64831;44.870;37.336;2023-04-01T18:01:58;10.73;42.85
76104;HTU21D;64831;44.870;37.336;2023-04-01T18:14:23;10.45;44.35
76104;HTU21D;64831;44.870;37.336;2023-04-01T18:19:42;10.36;44.93
76104;HTU21D;64831;44.870;37.336;2023-04-01T18:22:21;10.33;45.02
76104;HTU21D;64831;44.870;37.336;2023-04-01T18:27:41;10.27;45.12
76104;HTU21D;64831;44.870;37.336;2023-04-01T18:30:12;10.27;45.57
76104;HTU21D;64831;44.870;37.336;2023-04-01T18:37:43;10.29;45.25
76104;HTU21D;64831;44.870;37.336;2023-04-01T18:48:06;10.14;45.35
76104;HTU21D;64831;44.870;37.336;2023-04-01T18:53:09;10.00;45.62
76104;HTU21D;64831;44.870;37.336;2023-04-01T18:55:39;9.93;45.73
76104;HTU21D;64831;44.870;37.336;2023-04-01T19:00:41;9.83;46.27
76104;HTU21D;64831;44.870;37.336;2023-04-01T19:05:45;9.74;46.75
76104;HTU21D;64831;44.870;37.336;2023-04-01T19:08:31;9.68;46.95
